createdAt,value
2023-03-16T00:00:18.657Z,4.90
2023-03-16T00:02:45.608Z,4.65
2023-03-16T00:05:14.240Z,5.63
2023-03-16T00:07:44.620Z,5.20
2023-03-16T00:10:13.392Z,4.97
2023-03-16T00:12:40.295Z,4.22
2023-03-16T00:15:07.761Z,4.63
2023-03-16T00:17:34.865Z,4.13
2023-03-16T00:20:06.657Z,4.80
2023-03-16T00:22:36.321Z,4.05
2023-03-16T00:25:04.572Z,4.43
2023-03-16T00:27:31.578Z,5.13
2023-03-16T00:29:58.537Z,4.22
2023-03-16T00:32:32.092Z,4.13
2023-03-16T00:35:01.576Z,4.90
2023-03-16T00:37:29.144Z,4.40
2023-03-16T00:39:56.498Z,4.72
2023-03-16T00:42:27.784Z,4.18
2023-03-16T00:44:57.797Z,4.20
2023-03-16T00:47:31.286Z,4.47
2023-03-16T00:49:58.954Z,3.88
2023-03-16T00:52:27.626Z,3.80
2023-03-16T00:54:55.897Z,3.75
2023-03-16T00:57:25.361Z,4.10
2023-03-16T00:59:52.792Z,4.25
2023-03-16T01:02:23.816Z,3.90
2023-03-16T01:07:19.572Z,4.82
2023-03-16T01:09:46.529Z,4.03
2023-03-16T01:12:19.254Z,4.63
2023-03-16T01:14:46.841Z,5.00
2023-03-16T01:17:15.498Z,4.40
2023-03-16T01:19:42.935Z,5.20
2023-03-16T01:22:11.737Z,4.65
2023-03-16T01:24:39.269Z,4.65
2023-03-16T01:27:07.091Z,5.55
2023-03-16T01:29:34.247Z,4.68
2023-03-16T01:32:01.952Z,5.13
2023-03-16T01:34:28.937Z,5.07
2023-03-16T01:36:56.142Z,5.40
2023-03-16T01:39:23.372Z,5.30
2023-03-16T01:41:51.020Z,5.13
2023-03-16T01:44:22.728Z,4.82
2023-03-16T01:46:49.877Z,4.82
2023-03-16T01:49:25.973Z,5.13
2023-03-16T01:52:08.726Z,4.68
2023-03-16T01:54:42.589Z,4.78
2023-03-16T01:57:20.252Z,4.95
2023-03-16T01:59:59.254Z,4.15
2023-03-16T02:02:30.343Z,4.88
2023-03-16T02:05:07.305Z,4.55
2023-03-16T02:07:43.229Z,4.60
2023-03-16T02:10:12.588Z,4.75
2023-03-16T02:12:39.951Z,5.10
2023-03-16T02:15:07.405Z,4.70
2023-03-16T02:17:35.590Z,4.97
2023-03-16T02:20:36.242Z,4.80
2023-03-16T02:23:04.634Z,4.72
2023-03-16T02:25:46.122Z,4.40
2023-03-16T02:28:31.060Z,4.45
2023-03-16T02:30:58.592Z,4.13
2023-03-16T02:33:26.324Z,3.53
2023-03-16T02:35:53.275Z,4.00
2023-03-16T02:38:20.256Z,3.90
2023-03-16T02:40:59.762Z,4.07
2023-03-16T02:43:33.409Z,4.30
2023-03-16T02:46:05.520Z,4.25
2023-03-16T02:48:56.608Z,3.85
2023-03-16T02:51:23.522Z,4.10
2023-03-16T02:53:50.595Z,4.63
2023-03-16T02:56:17.445Z,3.95
2023-03-16T02:58:44.445Z,4.40
2023-03-16T03:01:11.583Z,4.28
2023-03-16T03:03:38.562Z,3.90
2023-03-16T03:06:05.909Z,3.70
2023-03-16T03:08:33.521Z,4.15
2023-03-16T03:11:00.814Z,4.28
2023-03-16T03:13:27.756Z,5.80
2023-03-16T03:15:54.628Z,6.03
2023-03-16T03:18:21.485Z,7.53
2023-03-16T03:20:48.467Z,7.57
2023-03-16T03:23:17.149Z,8.05
2023-03-16T03:25:44.066Z,8.50
2023-03-16T03:28:11.542Z,7.95
2023-03-16T03:30:38.555Z,8.68
2023-03-16T03:33:05.526Z,8.10
2023-03-16T03:35:32.606Z,8.60
2023-03-16T03:37:59.556Z,8.63
2023-03-16T03:40:26.668Z,7.57
2023-03-16T03:42:53.760Z,6.53
2023-03-16T03:45:20.737Z,4.72
2023-03-16T03:47:47.684Z,4.72
2023-03-16T03:50:14.715Z,4.90
2023-03-16T03:52:41.961Z,5.20
2023-03-16T03:55:10.920Z,4.60
2023-03-16T03:57:38.158Z,4.80
2023-03-16T04:00:11.108Z,4.95
2023-03-16T04:02:39.014Z,4.78
2023-03-16T04:05:07.434Z,4.75
2023-03-16T04:07:34.732Z,4.80
2023-03-16T04:10:01.600Z,5.63
2023-03-16T04:12:28.509Z,5.63
2023-03-16T04:14:55.393Z,5.43
2023-03-16T04:17:23.918Z,5.82
2023-03-16T04:19:50.970Z,5.38
2023-03-16T04:22:18.289Z,6.10
2023-03-16T04:24:45.355Z,7.70
2023-03-16T04:27:12.422Z,6.95
2023-03-16T04:29:39.432Z,6.22
2023-03-16T04:32:07.762Z,7.20
2023-03-16T04:34:34.738Z,7.35
2023-03-16T04:37:02.458Z,6.20
2023-03-16T04:39:29.532Z,6.43
2023-03-16T04:41:56.397Z,7.20
2023-03-16T04:44:23.259Z,6.97
2023-03-16T04:46:50.150Z,6.75
2023-03-16T04:49:17.052Z,7.10
2023-03-16T04:51:43.928Z,7.32
2023-03-16T04:54:11.408Z,5.07
2023-03-16T04:56:41.581Z,7.88
2023-03-16T04:59:08.599Z,8.02
2023-03-16T05:01:35.612Z,7.55
2023-03-16T05:04:02.592Z,6.30
2023-03-16T05:06:29.851Z,7.43
2023-03-16T05:08:58.839Z,7.88
2023-03-16T05:11:25.726Z,7.85
2023-03-16T05:13:52.712Z,6.80
2023-03-16T05:16:19.719Z,7.18
2023-03-16T05:18:46.652Z,7.18
2023-03-16T05:21:13.594Z,7.57
2023-03-16T05:23:40.462Z,7.60
2023-03-16T05:26:07.763Z,8.07
2023-03-16T05:28:34.632Z,9.27
2023-03-16T05:31:03.956Z,9.88
2023-03-16T05:33:30.972Z,9.35
2023-03-16T05:35:58.257Z,10.70
2023-03-16T05:38:27.639Z,9.15
2023-03-16T05:40:54.896Z,10.70
2023-03-16T05:43:22.369Z,8.88
2023-03-16T05:45:49.753Z,9.05
2023-03-16T05:48:16.682Z,10.88
2023-03-16T05:50:43.876Z,9.13
2023-03-16T05:53:10.883Z,9.80
2023-03-16T05:55:37.779Z,11.52
2023-03-16T05:58:05.810Z,11.30
2023-03-16T06:00:33.135Z,11.40
2023-03-16T06:03:01.522Z,11.02
2023-03-16T06:05:29.659Z,10.52
2023-03-16T06:07:56.553Z,10.68
2023-03-16T06:10:23.975Z,12.13
2023-03-16T06:12:51.634Z,12.68
2023-03-16T06:15:18.843Z,11.52
2023-03-16T06:17:45.741Z,13.00
2023-03-16T06:20:13.769Z,12.45
2023-03-16T06:22:42.547Z,11.70
2023-03-16T06:25:11.110Z,11.10
2023-03-16T06:27:38.643Z,11.48
2023-03-16T06:30:08.740Z,11.98
2023-03-16T06:32:36.409Z,12.82
2023-03-16T06:35:03.714Z,12.32
2023-03-16T06:37:31.369Z,12.60
2023-03-16T06:39:58.345Z,12.93
2023-03-16T06:42:25.584Z,12.15
2023-03-16T06:44:52.936Z,12.02
2023-03-16T06:47:20.646Z,11.77
2023-03-16T06:49:47.733Z,12.73
2023-03-16T06:52:15.127Z,11.52
2023-03-16T06:54:42.050Z,10.32
2023-03-16T06:57:09.284Z,10.70
2023-03-16T06:59:36.300Z,10.65
2023-03-16T07:02:03.284Z,11.32
2023-03-16T07:04:30.244Z,12.70
2023-03-16T07:06:57.382Z,13.75
2023-03-16T07:09:24.285Z,14.85
2023-03-16T07:11:53.088Z,13.60
2023-03-16T07:14:20.113Z,11.45
2023-03-16T07:16:47.029Z,11.82
2023-03-16T07:19:13.930Z,12.15
2023-03-16T07:21:42.059Z,10.48
2023-03-16T07:24:10.471Z,9.85
2023-03-16T07:26:37.741Z,10.85
2023-03-16T07:29:06.460Z,15.43
2023-03-16T07:31:34.779Z,14.88
2023-03-16T07:34:02.534Z,15.80
2023-03-16T07:36:29.900Z,13.55
2023-03-16T07:38:56.771Z,14.18
2023-03-16T07:41:24.809Z,11.60
2023-03-16T07:43:52.350Z,12.90
2023-03-16T07:46:19.329Z,14.10
2023-03-16T07:48:46.218Z,14.40
2023-03-16T07:51:14.120Z,13.40
2023-03-16T07:53:43.232Z,13.10
2023-03-16T07:56:10.362Z,12.10
2023-03-16T07:58:37.455Z,15.20
2023-03-16T08:01:04.380Z,12.82
2023-03-16T08:03:32.161Z,12.10
2023-03-16T08:05:59.693Z,13.38
2023-03-16T08:08:26.622Z,13.40
2023-03-16T08:10:56.207Z,13.10
2023-03-16T08:13:23.780Z,13.57
2023-03-16T08:16:02.200Z,14.95
2023-03-16T08:18:30.250Z,11.43
2023-03-16T08:20:58.645Z,13.18
2023-03-16T08:23:26.097Z,15.15
2023-03-16T08:25:57.583Z,14.02
2023-03-16T08:28:26.059Z,14.70
2023-03-16T08:30:55.640Z,12.13
2023-03-16T08:33:23.527Z,9.73
2023-03-16T08:35:53.420Z,10.73
2023-03-16T08:38:21.677Z,9.45
2023-03-16T08:40:50.721Z,9.63
2023-03-16T08:43:19.154Z,11.02
2023-03-16T08:45:47.124Z,10.45
2023-03-16T08:48:14.959Z,10.55
2023-03-16T08:50:44.238Z,10.65
2023-03-16T08:53:13.677Z,12.68
2023-03-16T08:55:44.131Z,12.35
2023-03-16T08:58:12.353Z,13.52
2023-03-16T09:00:40.060Z,11.90
2023-03-16T09:03:07.495Z,9.85
2023-03-16T09:05:34.805Z,9.63
2023-03-16T09:08:01.884Z,10.00
2023-03-16T09:10:29.137Z,12.05
2023-03-16T09:12:56.859Z,12.15
2023-03-16T09:15:23.798Z,11.00
2023-03-16T09:17:51.215Z,10.00
2023-03-16T09:20:22.866Z,10.52
2023-03-16T09:22:54.699Z,9.70
2023-03-16T09:25:21.888Z,10.20
2023-03-16T09:27:48.898Z,9.20
2023-03-16T09:30:17.114Z,9.35
2023-03-16T09:32:45.124Z,8.95
2023-03-16T09:35:12.074Z,10.05
2023-03-16T09:37:45.129Z,9.95
2023-03-16T09:40:25.672Z,9.52
2023-03-16T09:43:04.188Z,9.85
2023-03-16T09:46:06.647Z,9.55
2023-03-16T09:48:35.998Z,9.95
2023-03-16T09:51:06.633Z,9.65
2023-03-16T09:53:39.416Z,9.50
2023-03-16T09:56:46.456Z,9.35
2023-03-16T09:59:17.460Z,10.13
2023-03-16T10:04:27.990Z,9.43
2023-03-16T10:07:09.890Z,10.23
2023-03-16T10:09:46.004Z,9.52
2023-03-16T10:12:14.758Z,10.23
2023-03-16T10:14:54.149Z,8.73
2023-03-16T10:17:30.992Z,7.93
2023-03-16T10:20:04.828Z,7.40
2023-03-16T10:22:39.321Z,7.70
2023-03-16T10:25:40.219Z,8.40
2023-03-16T10:28:07.511Z,8.80
2023-03-16T10:30:38.712Z,8.32
2023-03-16T10:33:28.027Z,8.75
2023-03-16T10:36:37.912Z,8.60
2023-03-16T10:39:11.986Z,8.32
2023-03-16T10:41:58.193Z,8.05
2023-03-16T10:44:28.623Z,7.90
2023-03-16T10:47:07.446Z,8.43
2023-03-16T10:49:44.595Z,8.05
2023-03-16T10:52:23.964Z,7.85
2023-03-16T10:54:55.078Z,8.02
2023-03-16T11:00:21.019Z,8.23
2023-03-16T11:02:55.773Z,9.20
2023-03-16T11:05:31.265Z,7.97
2023-03-16T11:08:18.811Z,8.02
2023-03-16T11:10:56.180Z,9.05
2023-03-16T11:13:24.832Z,8.05
2023-03-16T11:16:23.151Z,8.20
2023-03-16T11:18:57.482Z,7.65
2023-03-16T11:21:46.832Z,8.93
2023-03-16T11:24:25.865Z,8.15
2023-03-16T11:26:58.740Z,7.88
2023-03-16T11:30:01.922Z,8.02
2023-03-16T11:32:39.171Z,8.05
2023-03-16T11:35:19.702Z,7.50
2023-03-16T11:38:16.905Z,7.93
2023-03-16T11:41:18.454Z,38.33
2023-03-16T11:43:57.050Z,7.35
2023-03-16T11:46:31.588Z,7.28
2023-03-16T11:49:15.923Z,7.47
2023-03-16T11:51:51.798Z,7.45
2023-03-16T11:54:37.484Z,7.63
2023-03-16T11:57:31.487Z,7.57
2023-03-16T12:00:22.844Z,7.88
2023-03-16T12:05:30.523Z,6.10
2023-03-16T12:08:24.711Z,6.07
2023-03-16T12:11:17.690Z,6.80
2023-03-16T12:14:15.806Z,6.90
2023-03-16T12:16:54.002Z,7.78
2023-03-16T12:19:29.121Z,7.88
2023-03-16T12:22:06.134Z,8.43
2023-03-16T12:24:42.756Z,8.43
2023-03-16T12:27:17.688Z,7.15
2023-03-16T12:30:03.995Z,7.15
2023-03-16T12:32:47.082Z,7.03
2023-03-16T12:35:31.730Z,6.40
2023-03-16T12:38:23.411Z,7.30
2023-03-16T12:41:20.580Z,6.90
2023-03-16T12:43:59.768Z,5.80
2023-03-16T12:46:53.629Z,7.38
2023-03-16T12:49:21.319Z,7.88
2023-03-16T12:51:59.733Z,7.72
2023-03-16T12:54:27.652Z,8.45
2023-03-16T12:57:02.820Z,8.23
2023-03-16T12:59:40.597Z,7.30
2023-03-16T13:02:15.786Z,7.57
2023-03-16T13:04:45.839Z,7.13
2023-03-16T13:07:20.194Z,7.68
2023-03-16T13:09:52.587Z,8.30
2023-03-16T13:12:28.458Z,8.90
2023-03-16T13:14:57.548Z,9.52
2023-03-16T13:17:42.837Z,9.23
2023-03-16T13:20:21.000Z,8.55
2023-03-16T13:23:22.651Z,9.23
2023-03-16T13:26:03.432Z,9.05
2023-03-16T13:28:33.568Z,8.50
2023-03-16T13:31:01.540Z,8.77
2023-03-16T13:33:31.857Z,8.75
2023-03-16T13:36:00.276Z,9.00
2023-03-16T13:38:28.797Z,8.52
2023-03-16T13:40:58.785Z,8.68
2023-03-16T13:43:32.912Z,8.80
2023-03-16T13:46:00.132Z,7.90
2023-03-16T13:48:27.040Z,7.15
2023-03-16T13:50:58.887Z,7.35
2023-03-16T13:53:33.260Z,8.52
2023-03-16T13:56:02.724Z,8.23
2023-03-16T13:58:36.281Z,7.30
2023-03-16T14:01:11.953Z,6.97
2023-03-16T14:03:42.406Z,7.35
2023-03-16T14:06:26.544Z,7.47
2023-03-16T14:08:59.138Z,7.55
2023-03-16T14:11:27.237Z,7.30
2023-03-16T14:13:56.379Z,7.25
2023-03-16T14:16:25.642Z,7.18
2023-03-16T14:19:01.082Z,6.68
2023-03-16T14:21:31.591Z,6.82
2023-03-16T14:24:00.343Z,6.72
2023-03-16T14:26:27.291Z,6.93
2023-03-16T14:29:18.755Z,6.63
2023-03-16T14:31:46.134Z,7.40
2023-03-16T14:34:25.435Z,6.32
2023-03-16T14:36:52.988Z,7.28
2023-03-16T14:39:21.673Z,7.53
2023-03-16T14:41:51.396Z,8.80
2023-03-16T14:44:38.545Z,7.88
2023-03-16T14:47:07.280Z,7.57
2023-03-16T14:49:37.537Z,7.47
2023-03-16T14:52:23.377Z,6.90
2023-03-16T14:54:51.607Z,6.63
2023-03-16T14:57:19.627Z,8.63
2023-03-16T14:59:46.909Z,9.85
2023-03-16T15:02:18.807Z,10.75
2023-03-16T15:04:46.988Z,10.05
2023-03-16T15:07:26.906Z,9.75
2023-03-16T15:09:55.633Z,9.60
2023-03-16T15:12:25.169Z,10.10
2023-03-16T15:15:10.845Z,9.77
2023-03-16T15:17:37.785Z,9.30
2023-03-16T15:20:05.408Z,9.13
2023-03-16T15:22:37.254Z,11.77
2023-03-16T15:25:20.939Z,11.55
2023-03-16T15:27:48.396Z,16.25
2023-03-16T15:30:21.857Z,16.25
2023-03-16T15:32:49.078Z,13.25
2023-03-16T15:35:16.829Z,13.00
2023-03-16T15:37:44.709Z,12.13
2023-03-16T15:40:39.591Z,10.35
2023-03-16T15:43:11.419Z,10.38
2023-03-16T15:45:38.660Z,10.52
2023-03-16T15:48:06.015Z,10.05
2023-03-16T15:50:33.425Z,10.02
2023-03-16T15:53:05.950Z,10.35
2023-03-16T15:55:35.335Z,10.27
2023-03-16T15:58:03.687Z,11.10
2023-03-16T16:00:39.727Z,10.43
2023-03-16T16:03:10.094Z,11.18
2023-03-16T16:05:38.101Z,10.48
2023-03-16T16:08:05.179Z,11.75
2023-03-16T16:10:32.449Z,2.70
2023-03-16T16:13:00.150Z,2.95
2023-03-16T16:15:33.812Z,2.70
2023-03-16T16:18:20.330Z,2.85
2023-03-16T16:20:48.439Z,2.70
2023-03-16T16:23:15.422Z,2.67
2023-03-16T16:25:42.642Z,2.85
2023-03-16T16:28:19.559Z,3.03
2023-03-16T16:30:47.759Z,3.20
2023-03-16T16:33:32.608Z,2.85
2023-03-16T16:36:02.014Z,2.90
2023-03-16T16:38:29.401Z,3.15
2023-03-16T16:40:59.630Z,3.25
2023-03-16T16:43:45.569Z,3.25
2023-03-16T16:46:16.732Z,3.65
2023-03-16T16:48:46.978Z,4.15
2023-03-16T16:51:26.741Z,4.32
2023-03-16T16:53:55.835Z,4.70
2023-03-16T16:56:35.897Z,5.30
2023-03-16T16:59:33.881Z,7.85
2023-03-16T17:02:21.741Z,8.18
2023-03-16T17:04:50.897Z,5.38
2023-03-16T17:07:18.160Z,4.93
2023-03-16T17:09:45.203Z,5.30
2023-03-16T17:12:22.795Z,5.35
2023-03-16T17:14:50.799Z,6.57
2023-03-16T17:17:18.797Z,5.93
2023-03-16T17:19:47.019Z,5.63
2023-03-16T17:22:25.273Z,5.63
2023-03-16T17:24:53.298Z,7.30
2023-03-16T17:27:26.240Z,7.65
2023-03-16T17:29:54.010Z,7.78
2023-03-16T17:32:25.664Z,7.68
2023-03-16T17:34:52.722Z,7.10
2023-03-16T17:37:22.358Z,7.25
2023-03-16T17:39:49.623Z,7.78
2023-03-16T17:42:18.947Z,6.55
2023-03-16T17:44:48.718Z,6.22
2023-03-16T17:47:24.372Z,5.50
2023-03-16T17:49:52.136Z,6.45
2023-03-16T17:52:25.486Z,6.70
2023-03-16T17:54:53.860Z,8.10
2023-03-16T17:57:32.716Z,8.85
2023-03-16T18:00:01.264Z,8.52
2023-03-16T18:02:46.426Z,8.52
2023-03-16T18:05:19.831Z,14.77
2023-03-16T18:07:47.177Z,11.88
2023-03-16T18:10:16.046Z,12.45
2023-03-16T18:12:44.257Z,12.77
2023-03-16T18:15:16.800Z,13.68
2023-03-16T18:17:44.720Z,13.20
2023-03-16T18:20:34.571Z,12.50
2023-03-16T18:23:10.525Z,13.40
2023-03-16T18:25:39.360Z,14.18
2023-03-16T18:28:13.917Z,14.05
2023-03-16T18:30:43.695Z,14.40
2023-03-16T18:33:31.660Z,14.70
2023-03-16T18:36:08.134Z,14.85
2023-03-16T18:38:39.364Z,15.73
2023-03-16T18:41:21.054Z,16.10
2023-03-16T18:43:48.696Z,16.02
2023-03-16T18:46:28.151Z,19.80
2023-03-16T18:48:57.688Z,19.98
2023-03-16T18:51:25.700Z,21.23
2023-03-16T18:53:53.564Z,23.38
2023-03-16T18:56:27.226Z,23.42
2023-03-16T18:58:55.459Z,28.27
2023-03-16T19:01:26.059Z,27.65
2023-03-16T19:03:53.938Z,27.90
2023-03-16T19:06:41.135Z,31.20
2023-03-16T19:09:13.646Z,29.65
2023-03-16T19:11:44.674Z,29.00
2023-03-16T19:16:53.008Z,24.70
2023-03-16T19:19:24.398Z,23.58
2023-03-16T19:21:58.912Z,25.75
2023-03-16T19:24:28.132Z,20.23
2023-03-16T19:26:56.595Z,24.10
2023-03-16T19:29:34.179Z,22.27
2023-03-16T19:32:02.260Z,69.40
2023-03-16T19:34:29.511Z,31.83
2023-03-16T19:36:56.515Z,28.35
2023-03-16T19:39:23.489Z,32.08
2023-03-16T19:41:56.557Z,39.58
2023-03-16T19:44:26.428Z,43.67
2023-03-16T19:46:55.024Z,45.85
2023-03-16T19:49:27.122Z,50.78
2023-03-16T19:51:55.895Z,52.38
2023-03-16T19:54:26.817Z,53.95
2023-03-16T19:59:29.204Z,51.80
2023-03-16T20:01:56.167Z,53.13
2023-03-16T20:04:25.980Z,52.40
2023-03-16T20:06:54.049Z,52.58
2023-03-16T20:09:22.266Z,49.08
2023-03-16T20:11:50.152Z,50.50
2023-03-16T20:14:33.606Z,47.00
2023-03-16T20:17:01.106Z,37.28
2023-03-16T20:19:28.664Z,37.45
2023-03-16T20:21:55.862Z,35.65
2023-03-16T20:24:23.344Z,31.42
2023-03-16T20:26:51.557Z,30.05
2023-03-16T20:29:33.271Z,29.42
2023-03-16T20:32:01.379Z,27.85
2023-03-16T20:34:31.289Z,27.38
2023-03-16T20:36:58.887Z,21.85
2023-03-16T20:39:26.045Z,20.48
2023-03-16T20:41:53.162Z,20.38
2023-03-16T20:44:23.668Z,22.35
2023-03-16T20:46:50.617Z,20.65
2023-03-16T20:49:25.361Z,21.77
2023-03-16T20:51:52.469Z,20.90
2023-03-16T20:54:19.348Z,23.13
2023-03-16T20:56:46.924Z,26.63
2023-03-16T20:59:24.917Z,27.67
2023-03-16T21:01:54.735Z,25.38
2023-03-16T21:04:27.614Z,25.40
2023-03-16T21:06:55.773Z,24.77
2023-03-16T21:09:22.718Z,24.80
2023-03-16T21:11:49.921Z,27.10
2023-03-16T21:14:22.208Z,28.70
2023-03-16T21:16:50.197Z,29.77
2023-03-16T21:19:23.078Z,37.05
2023-03-16T21:21:50.900Z,36.28
2023-03-16T21:24:17.942Z,37.35
2023-03-16T21:26:47.530Z,35.33
2023-03-16T21:29:17.934Z,34.67
2023-03-16T21:31:44.956Z,34.20
2023-03-16T21:34:28.052Z,34.90
2023-03-16T21:36:54.910Z,35.70
2023-03-16T21:39:25.219Z,35.42
2023-03-16T21:41:53.667Z,35.65
2023-03-16T21:44:20.841Z,37.17
2023-03-16T21:46:47.986Z,35.60
2023-03-16T21:49:15.965Z,32.10
2023-03-16T21:51:43.456Z,27.83
2023-03-16T21:54:17.016Z,29.10
2023-03-16T21:56:44.433Z,28.45
2023-03-16T21:59:11.903Z,27.13
2023-03-16T22:01:50.884Z,24.98
2023-03-16T22:04:21.761Z,24.40
2023-03-16T22:06:48.689Z,97.10
2023-03-16T22:09:20.688Z,28.30
2023-03-16T22:11:47.660Z,25.52
2023-03-16T22:14:14.583Z,27.67
2023-03-16T22:16:42.035Z,26.52
2023-03-16T22:19:13.507Z,22.85
2023-03-16T22:21:43.850Z,23.73
2023-03-16T22:24:19.235Z,24.17
2023-03-16T22:26:47.645Z,24.55
2023-03-16T22:29:25.523Z,22.00
2023-03-16T22:31:56.140Z,20.98
2023-03-16T22:34:50.525Z,16.13
2023-03-16T22:37:24.028Z,14.13
2023-03-16T22:39:51.349Z,13.57
2023-03-16T22:42:29.071Z,14.40
2023-03-16T22:44:56.616Z,14.80
2023-03-16T22:47:26.488Z,14.40
2023-03-16T22:49:53.965Z,13.45
2023-03-16T22:52:25.655Z,11.80
2023-03-16T22:54:53.090Z,12.15
2023-03-16T22:57:20.352Z,13.63
2023-03-16T22:59:48.277Z,13.45
2023-03-16T23:02:16.362Z,15.13
2023-03-16T23:04:44.593Z,15.63
2023-03-16T23:07:13.346Z,18.13
2023-03-16T23:09:40.697Z,18.25
2023-03-16T23:12:26.199Z,20.70
2023-03-16T23:14:53.148Z,20.65
2023-03-16T23:17:25.008Z,21.33
2023-03-16T23:19:52.047Z,22.67
2023-03-16T23:22:18.891Z,24.33
2023-03-16T23:24:45.884Z,23.08
2023-03-16T23:27:19.192Z,20.67
2023-03-16T23:29:46.764Z,22.20
2023-03-16T23:32:15.553Z,19.48
2023-03-16T23:34:42.474Z,20.33
2023-03-16T23:37:09.455Z,18.60
2023-03-16T23:39:36.676Z,19.00
2023-03-16T23:42:04.690Z,15.82
2023-03-16T23:44:31.691Z,16.83
2023-03-16T23:46:59.573Z,16.52
2023-03-16T23:49:32.921Z,17.35
2023-03-16T23:52:01.865Z,15.95
2023-03-16T23:54:31.398Z,15.52
2023-03-16T23:56:58.671Z,15.93
2023-03-16T23:59:26.771Z,15.77
